Hauptseite
METAR-TAF:

METAR-TAF

Flughäfen :

Flughafen Curaçao

Curaçao, Niederländische Antillen

Breite: 12-12N, Länge: 068-58W, Höhe: 9 m

Beobachtung

Neuester Wetterbericht von vor 50 Minuten, um 22:00 UTC
Wind 12 kt aus Ost
Temperatur 26°C
Luftfeuchtigkeit 79%
Luftdruck 1014 hPa
Sichtweite 10 km oder mehr

METAR: TNCC 162200Z AUTO 10012KT 9999 NCD 26/22 Q1014

Zeit: 18:50 (22:50 UTC)

Prognose

Neuester Wetterbericht von vor 7 Stunden und 20 Minuten, um 15:30 UTC
Gültige Prognose vom 16 um 18 UTC bis 17 um 18 UTC
Wind 16 kt aus Ost, Böen bis zu 28 kt
Sichtweite 10 km oder mehr
Aufgelockert bewölkt in der Höhe von 2200 ft

TAF: TNCC 161530Z 1618/1718 10016G28KT 9999 SCT022

Wetterbeobachtungen und Prognosen von mehr als 4000 Flughäfen (METAR und TAF Bericht).

Die verfügbaren Stationen werden durch gelbe und rote Markierungen auf der Karte dargestellt.

Führen Sie die Maus auf sie, um den Namen der Station zu sehen.

Darauf klicken, um die Beobachtung von Wetterbeobachtungen und Prognosen zu sehen.

Um die Karte zu ändern : klicken Sie auf den grünen Tasten mit einem schwarzen Kreuz Zum Vergrößern, auf den grünen Button mit einem Gedankenstrich zu verkleinern, oder auf die grünen Pfeile für benachbarte Karten.


METAR-TAF: